Accueil
METAR-TAF:

METAR-TAF

Aéroports :

Circuit de Zeltweg

Zeltweg, Autriche

latitude: 47-12N, longitude: 014-45E, altitude: 677 m

Observation

Le bulletin a été fait il y a 58 minutes, à 12:50 UTC
Vent 6 kt de nord, variant entre nord-ouest et nord/nord-est
Température 19°C
Humidité 37%
Pression 1019 hPa

METAR: LOXZ 011250Z 35006KT 320V030 40KM FEW060SC BKN070SC 19/04 Q1019 NOSIG

Heure: 15:48 (13:48 UTC)

Prévision

Le bulletin a été fait il y a 2 heures et 33 minutes, à 11:15 UTC
Prévision valable du 01 à 12 UTC au 01 à 21 UTC
Vent 10 kt de est/nord-est
Visibilité 10 km ou plus
Quelques nuages à une hauteur de 5000 ft
Nuages fragmentés à une hauteur de 7000 ft
Evoluant progressivement
du 01 à 16 UTC au 01 à 18 UTC
Vent 3 kt de direction variable
Nuages épars à une hauteur de 8000 ft

TAF: LOXZ 011115Z 0112/0121 07010KT 9999 FEW050 BKN070 BECMG 0116/0118 VRB03KT SCT080

Observations et prévisions météorologiques de plus de 4000 aéroports (messages METAR et TAF).

Les stations disponibles sont représentées par des disques jaunes et rouges sur la carte.

Passer la souris dessus pour voir le nom de la station.

Cliquer dessus pour voir les observations et prévisions météorologiques.

Pour changer de carte: cliquez sur les boutons verts avec une croix noire pour zoomer, sur le bouton vert avec un tiret pour effectuer un zoom arrière, ou sur les flèches vertes pour les cartes adjacentes.


METAR-TAF: